Time;durP1;ratioP1;P1;durP2;ratioP2;P2;SDS_P1;SDS_P2;PMS_P1;PMS_P2;Temp;Humidity;BMP_temperature;BMP_pressure;BME280_temperature;BME280_humidity;BME280_pressure;Samples;Min_cycle;Max_cycle;Signal;HPM_P1;HPM_P2
2022/01/16 00:04:41;;;;;;;;;;;2.40;99.90;;;;;;4959117;28;20347;-89
2022/01/16 00:07:22;;;;;;;;;;;;;;;;;;;;;
2022/01/16 00:09:48;;;;;;;;;;;3.50;99.90;;;;;;4958825;28;20320;-89
2022/01/16 00:12:18;;;;;;;;;;;1.80;99.90;;;;;;4941426;28;19973;-89
2022/01/16 00:14:44;;;;;;;;;;;1.70;99.90;;;;;;4941973;28;19977;-88
2022/01/16 00:17:14;;;;;;;;;;;1.90;99.90;;;;;;4925789;28;19926;-88
2022/01/16 00:19:50;;;;;;;;;;;1.70;99.90;;;;;;4925729;28;19930;-90
2022/01/16 00:22:28;;;;;;;;;;;;;;;;;;;;;
2022/01/16 00:25:04;;;;;;;;;;;2.70;99.90;;;;;;4943078;28;19977;-90
2022/01/16 00:27:37;;;;;;;;;;;2.10;99.90;;;;;;4926574;28;19929;-90
2022/01/16 00:30:21;;;;;;;;;;;;;;;;;;;;;
2022/01/16 00:33:03;;;;;;;;;;;;;;;;;;;;;
2022/01/16 00:35:38;;;;;;;;;;;;;;;;;;;;;
2022/01/16 00:38:14;;;;;;;;;;;2.80;99.90;;;;;;4944553;28;19922;-88
2022/01/16 00:40:41;;;;;;;;;;;2.30;99.90;;;;;;4929087;28;19929;-89
2022/01/16 00:43:14;;;;;;;;;;;1.50;99.90;;;;;;4929487;28;20369;-90
2022/01/16 00:45:50;;;;;;;;;;;2.50;99.90;;;;;;4926307;28;19922;-89
2022/01/16 00:51:04;;;;;;;;;;;1.50;99.90;;;;;;4947116;28;20002;-89
2022/01/16 00:53:39;;;;;;;;;;;1.50;99.90;;;;;;4928826;28;19930;-89
2022/01/16 00:56:08;;;;;;;;;;;1.80;99.90;;;;;;4929301;28;19922;-89
2022/01/16 01:01:24;;;;;;;;;;;1.50;99.90;;;;;;4947227;28;19922;-90
2022/01/16 01:04:00;;;;;;;;;;;3.00;99.90;;;;;;4928600;28;19976;-89
2022/01/16 01:06:30;;;;;;;;;;;1.80;99.90;;;;;;4929033;28;20076;-89
2022/01/16 01:08:58;;;;;;;;;;;1.70;99.90;;;;;;4928953;28;19976;-88
2022/01/16 01:11:27;;;;;;;;;;;1.20;99.90;;;;;;4929204;28;19944;-89
2022/01/16 01:14:13;;;;;;;;;;;1.30;99.90;;;;;;4928959;28;19926;-90
2022/01/16 01:17:07;;;;;;;;;;;2.30;99.90;;;;;;4943656;28;19996;-91
2022/01/16 01:19:45;;;;;;;;;;;;;;;;;;;;;
2022/01/16 01:22:37;;;;;;;;;;;;;;;;;;;;;
2022/01/16 01:25:11;;;;;;;;;;;2.60;99.90;;;;;;4962314;28;20344;-89
2022/01/16 01:27:36;;;;;;;;;;;1.40;99.90;;;;;;4945572;28;19922;-90
2022/01/16 01:30:09;;;;;;;;;;;3.10;99.90;;;;;;4943770;28;19930;-90
2022/01/16 01:32:47;;;;;;;;;;;1.40;99.90;;;;;;4945051;28;20020;-89
2022/01/16 01:35:24;;;;;;;;;;;2.30;99.90;;;;;;4944121;28;19922;-89
2022/01/16 01:38:08;;;;;;;;;;;;;;;;;;;;;
2022/01/16 01:40:52;;;;;;;;;;;1.30;99.90;;;;;;4962755;28;19922;-89
2022/01/16 01:51:37;;;;;;;;;;;;;;;;;;;;;
2022/01/16 01:54:06;;;;;;;;;;;2.30;99.90;;;;;;4960614;28;19959;-90
2022/01/16 01:56:42;;;;;;;;;;;;;;;;;;;;;
2022/01/16 01:59:15;;;;;;;;;;;2.80;99.90;;;;;;4960508;28;19969;-88
2022/01/16 02:01:43;;;;;;;;;;;1.10;99.90;;;;;;4943162;28;19969;-89
2022/01/16 02:04:11;;;;;;;;;;;0.80;99.90;;;;;;4943233;28;20020;-90
2022/01/16 02:06:41;;;;;;;;;;;1.50;99.90;;;;;;4943192;28;19929;-88
2022/01/16 02:09:29;;;;;;;;;;;1.20;99.90;;;;;;4943487;28;19922;-92
2022/01/16 02:12:01;;;;;;;;;;;2.10;99.90;;;;;;4959370;28;20029;-88
2022/01/16 02:14:45;;;;;;;;;;;2.40;99.90;;;;;;4943295;28;19926;-89
2022/01/16 02:28:54;;;;;;;;;;;1.40;99.90;;;;;;4942255;28;20395;-90
2022/01/16 02:31:23;;;;;;;;;;;1.30;99.90;;;;;;4909851;29;19922;-89
2022/01/16 02:36:42;;;;;;;;;;;;;;;;;;;;;
2022/01/16 02:39:26;;;;;;;;;;;;;;;;;;;;;
2022/01/16 02:42:02;;;;;;;;;;;1.40;99.90;;;;;;4925146;29;19930;-90
2022/01/16 02:47:02;;;;;;;;;;;2.00;99.90;;;;;;4923289;29;19950;-90
2022/01/16 02:50:00;;;;;;;;;;;1.70;99.90;;;;;;4907612;29;19957;-89
2022/01/16 02:52:28;;;;;;;;;;;1.50;99.90;;;;;;4918889;29;20315;-89
2022/01/16 02:55:24;;;;;;;;;;;;;;;;;;;;;
2022/01/16 02:57:55;;;;;;;;;;;2.60;99.90;;;;;;4938724;29;19933;-89
2022/01/16 03:00:22;;;;;;;;;;;1.50;99.90;;;;;;4888593;29;19922;-86
2022/01/16 03:02:52;;;;;;;;;;;2.10;99.90;;;;;;4921162;29;20098;-89
2022/01/16 03:05:27;;;;;;;;;;;1.90;99.90;;;;;;4923660;29;19923;-88
2022/01/16 03:08:10;;;;;;;;;;;;;;;;;;;;;
2022/01/16 03:11:10;;;;;;;;;;;;;;;;;;;;;
2022/01/16 03:13:32;;;;;;;;;;;1.70;99.90;;;;;;4923354;29;19922;-90
2022/01/16 03:16:09;;;;;;;;;;;2.60;99.90;;;;;;4926154;28;19957;-90
2022/01/16 03:24:40;;;;;;;;;;;1.60;99.90;;;;;;4950288;28;19929;-89
2022/01/16 03:30:01;;;;;;;;;;;3.50;99.90;;;;;;4966849;28;20025;-90
2022/01/16 03:32:52;;;;;;;;;;;1.70;99.90;;;;;;4942442;28;19973;-89
2022/01/16 03:35:20;;;;;;;;;;;2.00;99.90;;;;;;4942825;28;19957;-89
2022/01/16 03:37:54;;;;;;;;;;;1.70;99.90;;;;;;4942644;28;19933;-90
2022/01/16 03:40:31;;;;;;;;;;;;;;;;;;;;;
2022/01/16 03:43:28;;;;;;;;;;;3.60;99.90;;;;;;4958946;28;19922;-89
2022/01/16 03:46:03;;;;;;;;;;;;;;;;;;;;;
2022/01/16 03:48:39;;;;;;;;;;;3.00;99.90;;;;;;4959199;28;19922;-88
2022/01/16 03:51:13;;;;;;;;;;;1.70;99.90;;;;;;4941637;28;19923;-91
2022/01/16 03:53:39;;;;;;;;;;;2.60;99.90;;;;;;4941723;28;19930;-88
2022/01/16 03:56:17;;;;;;;;;;;1.10;99.90;;;;;;4941662;28;20005;-89
2022/01/16 03:58:52;;;;;;;;;;;0.90;99.90;;;;;;4942449;28;19922;-89
2022/01/16 04:01:33;;;;;;;;;;;3.10;99.90;;;;;;4941847;28;20017;-90
2022/01/16 04:04:08;;;;;;;;;;;2.90;99.90;;;;;;4941809;28;19957;-90
2022/01/16 04:06:41;;;;;;;;;;;1.90;99.90;;;;;;4942677;28;19968;-89
2022/01/16 04:09:33;;;;;;;;;;;2.10;99.90;;;;;;4941083;28;19968;-90
2022/01/16 04:12:07;;;;;;;;;;;2.20;99.90;;;;;;4958564;28;19929;-89
2022/01/16 04:17:55;;;;;;;;;;;;;;;;;;;;;
2022/01/16 04:20:42;;;;;;;;;;;2.10;99.90;;;;;;4959286;28;19938;-89
2022/01/16 04:23:14;;;;;;;;;;;3.00;99.90;;;;;;4959157;28;20369;-89
2022/01/16 04:26:00;;;;;;;;;;;1.40;99.90;;;;;;4945273;28;19969;-89
2022/01/16 04:28:36;;;;;;;;;;;2.30;99.90;;;;;;4947101;28;19922;-89
2022/01/16 04:31:03;;;;;;;;;;;2.30;99.90;;;;;;4946102;28;19923;-89
2022/01/16 04:33:58;;;;;;;;;;;1.90;99.90;;;;;;4945093;28;19949;-91
2022/01/16 04:36:33;;;;;;;;;;;1.80;99.90;;;;;;4957670;28;19981;-89
2022/01/16 04:39:32;;;;;;;;;;;2.40;99.90;;;;;;4944624;28;20404;-89
2022/01/16 04:45:03;;;;;;;;;;;2.10;99.90;;;;;;4977408;28;19973;-89
2022/01/16 04:47:51;;;;;;;;;;;2.40;99.90;;;;;;4963103;28;19969;-90
2022/01/16 04:53:25;;;;;;;;;;;;;;;;;;;;;
2022/01/16 04:55:56;;;;;;;;;;;2.90;99.90;;;;;;4961938;28;20265;-89
2022/01/16 04:58:30;;;;;;;;;;;2.30;99.90;;;;;;4945321;28;20357;-89
2022/01/16 05:00:55;;;;;;;;;;;1.80;99.90;;;;;;4944544;28;19922;-89
2022/01/16 05:03:26;;;;;;;;;;;2.80;99.90;;;;;;4944469;28;19928;-89
2022/01/16 05:05:54;;;;;;;;;;;3.30;99.90;;;;;;4944770;28;19937;-89
2022/01/16 05:08:30;;;;;;;;;;;;;;;;;;;;;
2022/01/16 05:11:07;;;;;;;;;;;2.50;99.90;;;;;;4962036;28;19922;-88
2022/01/16 05:16:39;;;;;;;;;;;2.20;99.90;;;;;;4962592;28;20021;-89
2022/01/16 05:19:09;;;;;;;;;;;4.20;99.90;;;;;;4946360;28;19922;-88
2022/01/16 05:21:37;;;;;;;;;;;2.50;99.90;;;;;;4943444;28;20313;-90
2022/01/16 05:24:25;;;;;;;;;;;2.40;99.90;;;;;;4944031;28;19922;-89
2022/01/16 05:27:23;;;;;;;;;;;;;;;;;;;;;
2022/01/16 05:35:28;;;;;;;;;;;3.50;99.90;;;;;;4962495;28;20012;-89
2022/01/16 05:38:01;;;;;;;;;;;2.60;99.90;;;;;;4944097;28;19928;-89
2022/01/16 05:40:44;;;;;;;;;;;2.30;99.90;;;;;;4943419;28;20368;-89
2022/01/16 05:43:13;;;;;;;;;;;2.60;99.90;;;;;;4943774;28;19977;-88
2022/01/16 05:45:48;;;;;;;;;;;3.00;99.90;;;;;;4943706;28;19948;-89
2022/01/16 05:48:29;;;;;;;;;;;3.70;99.90;;;;;;4944130;28;19922;-89
2022/01/16 05:51:14;;;;;;;;;;;2.70;99.90;;;;;;4943687;28;19929;-90
2022/01/16 05:53:40;;;;;;;;;;;3.20;99.90;;;;;;4943323;28;19926;-89
2022/01/16 05:56:28;;;;;;;;;;;2.40;99.90;;;;;;4942873;28;19929;-89
2022/01/16 05:58:59;;;;;;;;;;;4.00;99.90;;;;;;4959550;28;20392;-88
2022/01/16 06:01:35;;;;;;;;;;;;;;;;;;;;;
2022/01/16 06:04:21;;;;;;;;;;;4.30;99.90;;;;;;4960573;28;20373;-89
2022/01/16 06:06:49;;;;;;;;;;;1.50;99.90;;;;;;4945911;28;19922;-89
2022/01/16 06:09:34;;;;;;;;;;;3.50;99.90;;;;;;4945825;28;19980;-89
2022/01/16 06:12:04;;;;;;;;;;;4.10;99.90;;;;;;4943722;28;19923;-87
2022/01/16 06:14:50;;;;;;;;;;;3.10;99.90;;;;;;4942932;28;20373;-89
2022/01/16 06:17:20;;;;;;;;;;;2.80;99.90;;;;;;4945785;28;20038;-88
2022/01/16 06:19:54;;;;;;;;;;;3.80;99.90;;;;;;4943200;28;19929;-89
2022/01/16 06:22:39;;;;;;;;;;;;;;;;;;;;;
2022/01/16 06:25:22;;;;;;;;;;;3.90;99.90;;;;;;4960081;28;19929;-89
2022/01/16 06:27:48;;;;;;;;;;;2.90;99.90;;;;;;4943685;28;19922;-90
2022/01/16 06:30:37;;;;;;;;;;;2.40;99.90;;;;;;4942964;28;19973;-89
2022/01/16 06:33:15;;;;;;;;;;;;;;;;;;;;;
2022/01/16 06:35:43;;;;;;;;;;;3.80;99.90;;;;;;4959312;28;20400;-88
2022/01/16 06:38:21;;;;;;;;;;;;;;;;;;;;;
2022/01/16 06:40:50;;;;;;;;;;;3.30;99.90;;;;;;4959598;28;19922;-89
2022/01/16 06:43:23;;;;;;;;;;;3.60;99.90;;;;;;4942698;28;19922;-89
2022/01/16 06:45:59;;;;;;;;;;;2.40;99.90;;;;;;4958377;28;20024;-88
2022/01/16 06:48:40;;;;;;;;;;;;;;;;;;;;;
2022/01/16 06:51:23;;;;;;;;;;;;;;;;;;;;;
2022/01/16 06:54:05;;;;;;;;;;;;;;;;;;;;;
2022/01/16 06:56:49;;;;;;;;;;;4.50;99.90;;;;;;4960284;28;19926;-90
2022/01/16 07:05:34;;;;;;;;;;;3.30;99.90;;;;;;4974383;28;19977;-90
2022/01/16 07:08:25;;;;;;;;;;;3.50;99.90;;;;;;4947011;28;19937;-90
2022/01/16 07:11:08;;;;;;;;;;;;;;;;;;;;;
2022/01/16 07:14:05;;;;;;;;;;;4.30;99.90;;;;;;4959169;28;19922;-91
2022/01/16 07:16:58;;;;;;;;;;;;;;;;;;;;;
2022/01/16 07:19:29;;;;;;;;;;;4.40;99.90;;;;;;4959616;28;19926;-89
2022/01/16 07:22:25;;;;;;;;;;;;;;;;;;;;;
2022/01/16 07:25:11;;;;;;;;;;;4.90;99.90;;;;;;4959814;28;19968;-90
2022/01/16 07:31:05;;;;;;;;;;;3.60;99.90;;;;;;4964180;28;19922;-89
2022/01/16 07:34:00;;;;;;;;;;;3.70;99.90;;;;;;4958770;28;19973;-89
2022/01/16 07:36:33;;;;;;;;;;;3.50;99.90;;;;;;4948173;28;20272;-91
2022/01/16 07:39:45;;;;;;;;;;;3.40;99.90;;;;;;4943453;28;19973;-90
2022/01/16 07:42:18;;;;;;;;;;;4.00;99.90;;;;;;4988603;28;19929;-90
2022/01/16 07:45:25;;;;;;;;;;;3.70;99.90;;;;;;4941908;28;19922;-90
2022/01/16 10:29:02;;;;;;;;;;;5.60;99.90;;;;;;4898114;29;19923;-90
2022/01/16 11:23:43;;;;;;;;;;;;;;;;;;;;;
2022/01/16 11:26:36;;;;;;;;;;;6.70;99.90;;;;;;5949617;24;19948;-93
2022/01/16 11:33:13;;;;;;;;;;;;;;;;;;;;;
2022/01/16 11:35:57;;;;;;;;;;;;;;;;;;;;;
2022/01/16 11:39:24;;;;;;;;;;;6.40;99.90;;;;;;5924706;24;19919;-90
2022/01/16 12:05:50;;;;;;;;;;;;;;;;;;;;;
2022/01/16 12:32:45;;;;;;;;;;;;;;;;;;;;;
2022/01/16 13:31:50;;;;;;;;;;;6.90;99.90;;;;;;5903316;24;19955;-91
2022/01/16 14:31:15;;;;;;;;;;;;;;;;;;;;;
2022/01/16 14:34:38;;;;;;;;;;;7.10;99.90;;;;;;6001461;24;19919;-93
2022/01/16 14:48:52;;;;;;;;;;;;;;;;;;;;;
2022/01/16 14:52:14;;;;;;;;;;;;;;;;;;;;;
2022/01/16 14:55:06;;;;;;;;;;;6.80;99.90;;;;;;6083069;23;19933;-91
2022/01/16 15:00:57;;;;;;;;;;;;;;;;;;;;;
2022/01/16 15:15:24;;;;;;;;;;;;;;;;;;;;;
2022/01/16 15:31:13;;;;;;;;;;;;;;;;;;;;;
2022/01/16 15:37:22;;;;;;;;;;;6.30;99.90;;;;;;6045088;23;19918;-91
2022/01/16 15:43:42;;;;;;;;;;;;;;;;;;;;;
2022/01/16 15:56:12;;;;;;;;;;;;;;;;;;;;;
2022/01/16 15:59:29;;;;;;;;;;;6.20;99.90;;;;;;6015390;23;20344;-89
2022/01/16 16:02:11;;;;;;;;;;;6.30;99.90;;;;;;6017008;23;20196;-94
2022/01/16 16:05:03;;;;;;;;;;;6.20;99.90;;;;;;5970247;23;19929;-89
2022/01/16 16:11:30;;;;;;;;;;;;;;;;;;;;;
2022/01/16 16:18:00;;;;;;;;;;;6.00;99.90;;;;;;5985281;23;20244;-92
2022/01/16 16:20:44;;;;;;;;;;;;;;;;;;;;;
2022/01/16 16:23:21;;;;;;;;;;;5.70;99.90;;;;;;6036995;23;19957;-91
2022/01/16 16:26:17;;;;;;;;;;;;;;;;;;;;;
2022/01/16 16:32:11;;;;;;;;;;;5.10;99.90;;;;;;6150522;23;19920;-91
2022/01/16 16:34:59;;;;;;;;;;;5.80;99.90;;;;;;6131919;23;19917;-90
2022/01/16 16:40:52;;;;;;;;;;;;;;;;;;;;;
2022/01/16 16:46:48;;;;;;;;;;;6.00;99.90;;;;;;6112115;23;20289;-90
2022/01/16 16:55:35;;;;;;;;;;;5.90;99.90;;;;;;6113098;23;19928;-90
2022/01/16 17:07:55;;;;;;;;;;;6.50;99.90;;;;;;6118772;23;19920;-90
2022/01/16 17:10:51;;;;;;;;;;;5.80;99.90;;;;;;6104187;23;19924;-92
2022/01/16 17:14:05;;;;;;;;;;;6.60;99.90;;;;;;6109065;23;19921;-92
2022/01/16 17:16:57;;;;;;;;;;;;;;;;;;;;;
2022/01/16 17:22:34;;;;;;;;;;;7.00;99.90;;;;;;6114348;23;19923;-90
2022/01/16 17:25:37;;;;;;;;;;;7.10;99.90;;;;;;6086348;23;19921;-91
2022/01/16 17:31:43;;;;;;;;;;;6.30;99.90;;;;;;6103498;23;19917;-90
2022/01/16 17:43:23;;;;;;;;;;;6.30;99.90;;;;;;6091553;23;19920;-92
2022/01/16 17:46:11;;;;;;;;;;;5.60;99.90;;;;;;6097016;23;19947;-91
2022/01/16 17:49:00;;;;;;;;;;;6.40;99.90;;;;;;6105417;23;19916;-89
2022/01/16 17:54:37;;;;;;;;;;;7.30;99.90;;;;;;6091753;23;19931;-91
2022/01/16 17:57:21;;;;;;;;;;;7.30;99.90;;;;;;6109505;23;19970;-91
2022/01/16 17:59:52;;;;;;;;;;;7.10;99.90;;;;;;6085375;23;19955;-89
2022/01/16 18:02:33;;;;;;;;;;;;;;;;;;;;;
2022/01/16 18:04:59;;;;;;;;;;;6.30;99.90;;;;;;6106794;23;19974;-90
2022/01/16 18:07:40;;;;;;;;;;;;;;;;;;;;;
2022/01/16 18:10:47;;;;;;;;;;;6.00;99.90;;;;;;6107707;23;20241;-90
2022/01/16 18:13:14;;;;;;;;;;;6.30;99.90;;;;;;6125164;23;19927;-90
2022/01/16 18:15:56;;;;;;;;;;;6.70;99.90;;;;;;6081098;23;19920;-91
2022/01/16 18:18:48;;;;;;;;;;;6.30;99.90;;;;;;6082055;23;20379;-89
2022/01/16 18:21:20;;;;;;;;;;;;;;;;;;;;;
2022/01/16 18:23:49;;;;;;;;;;;6.50;99.90;;;;;;6129313;23;20273;-91
2022/01/16 18:26:35;;;;;;;;;;;5.70;99.90;;;;;;6081065;23;19927;-90
2022/01/16 18:29:03;;;;;;;;;;;6.80;99.90;;;;;;6081616;23;19917;-92
2022/01/16 18:31:41;;;;;;;;;;;;;;;;;;;;;
2022/01/16 18:34:17;;;;;;;;;;;7.10;99.90;;;;;;6108490;23;19924;-91
2022/01/16 18:36:53;;;;;;;;;;;;;;;;;;;;;
2022/01/16 18:39:46;;;;;;;;;;;;;;;;;;;;;
2022/01/16 18:42:30;;;;;;;;;;;6.10;99.90;;;;;;6105467;23;19920;-91
2022/01/16 18:45:16;;;;;;;;;;;5.90;99.90;;;;;;6082626;23;19920;-89
2022/01/16 18:48:01;;;;;;;;;;;;;;;;;;;;;
2022/01/16 18:53:40;;;;;;;;;;;6.40;99.90;;;;;;6095205;23;19956;-91
2022/01/16 18:56:12;;;;;;;;;;;6.20;99.90;;;;;;6083377;23;19917;-91
2022/01/16 18:59:10;;;;;;;;;;;;;;;;;;;;;
2022/01/16 19:02:09;;;;;;;;;;;;;;;;;;;;;
2022/01/16 19:13:29;;;;;;;;;;;6.40;99.90;;;;;;6090623;23;19921;-90
2022/01/16 19:16:05;;;;;;;;;;;7.50;99.90;;;;;;6089927;23;20119;-91
2022/01/16 19:19:02;;;;;;;;;;;;;;;;;;;;;
2022/01/16 19:21:51;;;;;;;;;;;6.10;99.90;;;;;;6097306;23;19932;-90
2022/01/16 19:24:24;;;;;;;;;;;6.50;99.90;;;;;;6048452;23;19917;-90
2022/01/16 19:28:02;;;;;;;;;;;5.80;99.90;;;;;;6048227;23;19972;-91
2022/01/16 19:30:45;;;;;;;;;;;5.90;99.90;;;;;;5967214;23;19925;-90
2022/01/16 19:34:01;;;;;;;;;;;;;;;;;;;;;
2022/01/16 19:39:33;;;;;;;;;;;5.50;99.90;;;;;;5957010;23;19918;-91
2022/01/16 19:42:15;;;;;;;;;;;6.10;99.90;;;;;;6053607;23;19928;-90
2022/01/16 19:48:00;;;;;;;;;;;6.90;99.90;;;;;;6082312;23;20052;-91
2022/01/16 19:50:53;;;;;;;;;;;7.20;99.90;;;;;;6049083;23;20093;-90
2022/01/16 19:53:29;;;;;;;;;;;6.10;99.90;;;;;;6071082;23;19925;-91
2022/01/16 19:56:07;;;;;;;;;;;;;;;;;;;;;
2022/01/16 19:58:59;;;;;;;;;;;;;;;;;;;;;
2022/01/16 20:01:35;;;;;;;;;;;6.30;99.90;;;;;;6076723;23;19918;-90
2022/01/16 20:04:23;;;;;;;;;;;;;;;;;;;;;
2022/01/16 20:07:29;;;;;;;;;;;6.40;99.90;;;;;;6075208;23;20339;-90
2022/01/16 20:10:05;;;;;;;;;;;;;;;;;;;;;
2022/01/16 20:12:58;;;;;;;;;;;6.10;99.90;;;;;;6074137;23;19921;-91
2022/01/16 20:15:44;;;;;;;;;;;;;;;;;;;;;
2022/01/16 20:18:20;;;;;;;;;;;6.60;99.90;;;;;;6103920;23;19968;-92
2022/01/16 20:20:53;;;;;;;;;;;5.90;99.90;;;;;;6078278;23;19917;-92
2022/01/16 20:23:29;;;;;;;;;;;;;;;;;;;;;
2022/01/16 20:26:00;;;;;;;;;;;7.10;99.90;;;;;;6102306;23;19976;-90
2022/01/16 20:31:21;;;;;;;;;;;6.00;99.90;;;;;;6099012;23;19921;-90
2022/01/16 20:33:49;;;;;;;;;;;6.20;99.90;;;;;;6077144;23;19979;-90
2022/01/16 20:36:28;;;;;;;;;;;;;;;;;;;;;
2022/01/16 20:39:10;;;;;;;;;;;5.80;99.90;;;;;;6103604;23;19920;-90
2022/01/16 20:41:48;;;;;;;;;;;;;;;;;;;;;
2022/01/16 20:44:34;;;;;;;;;;;6.60;99.90;;;;;;6102991;23;19917;-91
2022/01/16 20:47:25;;;;;;;;;;;7.10;99.90;;;;;;6100801;23;19997;-90
2022/01/16 20:49:56;;;;;;;;;;;6.00;99.90;;;;;;6078299;23;19928;-91
2022/01/16 20:52:36;;;;;;;;;;;;;;;;;;;;;
2022/01/16 20:55:04;;;;;;;;;;;6.90;99.90;;;;;;6103159;23;19924;-90
2022/01/16 20:58:00;;;;;;;;;;;;;;;;;;;;;
2022/01/16 21:00:32;;;;;;;;;;;6.20;99.90;;;;;;6102507;23;19972;-90
2022/01/16 21:03:02;;;;;;;;;;;5.80;99.90;;;;;;6076906;23;19917;-91
2022/01/16 21:05:36;;;;;;;;;;;6.50;99.90;;;;;;6078439;23;19928;-90
2022/01/16 21:08:07;;;;;;;;;;;5.60;99.90;;;;;;6076848;23;20395;-90
2022/01/16 21:10:37;;;;;;;;;;;5.50;99.90;;;;;;6076494;23;19921;-92
2022/01/16 21:13:08;;;;;;;;;;;5.30;99.90;;;;;;6076565;23;19928;-90
2022/01/16 21:15:37;;;;;;;;;;;5.60;99.90;;;;;;6075731;23;19931;-89
2022/01/16 21:18:27;;;;;;;;;;;6.10;99.90;;;;;;6076515;23;20053;-91
2022/01/16 21:20:56;;;;;;;;;;;4.70;99.90;;;;;;6077644;23;19975;-91
2022/01/16 21:23:22;;;;;;;;;;;5.40;99.90;;;;;;6076731;23;19963;-90
2022/01/16 21:25:52;;;;;;;;;;;6.00;99.90;;;;;;6076257;23;19921;-90
2022/01/16 21:28:23;;;;;;;;;;;6.60;99.90;;;;;;6077149;23;19924;-91
2022/01/16 21:31:29;;;;;;;;;;;6.40;99.90;;;;;;6076095;23;19995;-90
2022/01/16 21:34:03;;;;;;;;;;;5.50;99.90;;;;;;6123737;23;19932;-89
2022/01/16 21:36:50;;;;;;;;;;;;;;;;;;;;;
2022/01/16 21:39:44;;;;;;;;;;;5.40;99.90;;;;;;6102736;23;19917;-91
2022/01/16 21:42:13;;;;;;;;;;;5.30;99.90;;;;;;6124996;23;19921;-89
2022/01/16 21:45:02;;;;;;;;;;;;;;;;;;;;;
2022/01/16 21:47:46;;;;;;;;;;;5.30;99.90;;;;;;6103338;23;19921;-91
2022/01/16 21:50:23;;;;;;;;;;;5.50;99.90;;;;;;6076302;23;19924;-90
2022/01/16 21:52:54;;;;;;;;;;;5.30;99.90;;;;;;6077606;23;19916;-90
2022/01/16 21:55:23;;;;;;;;;;;5.80;99.90;;;;;;6076181;23;20393;-91
2022/01/16 21:58:26;;;;;;;;;;;;;;;;;;;;;
2022/01/16 22:00:58;;;;;;;;;;;6.00;99.90;;;;;;6104280;23;19971;-92
2022/01/16 22:10:06;;;;;;;;;;;5.60;99.90;;;;;;6037626;23;19917;-91
2022/01/16 22:12:38;;;;;;;;;;;6.30;99.90;;;;;;6098516;23;20330;-92
2022/01/16 22:15:31;;;;;;;;;;;;;;;;;;;;;
2022/01/16 22:18:03;;;;;;;;;;;5.60;99.90;;;;;;6109030;23;19921;-90
2022/01/16 22:20:37;;;;;;;;;;;5.20;99.90;;;;;;6083682;23;19921;-90
2022/01/16 22:23:05;;;;;;;;;;;5.80;99.90;;;;;;6082190;23;20404;-90
2022/01/16 22:25:40;;;;;;;;;;;5.50;99.90;;;;;;6082421;23;19921;-91
2022/01/16 22:28:08;;;;;;;;;;;6.20;99.90;;;;;;6082189;23;20329;-91
2022/01/16 22:31:09;;;;;;;;;;;;;;;;;;;;;
2022/01/16 22:33:39;;;;;;;;;;;5.50;99.90;;;;;;6130434;23;19944;-91
2022/01/16 22:45:55;;;;;;;;;;;;;;;;;;;;;
2022/01/16 22:48:53;;;;;;;;;;;6.20;99.90;;;;;;6136800;23;19995;-90
2022/01/16 23:01:42;;;;;;;;;;;5.30;99.90;;;;;;6134312;23;19967;-93
2022/01/16 23:04:25;;;;;;;;;;;4.60;99.90;;;;;;6111058;23;19921;-91
2022/01/16 23:06:56;;;;;;;;;;;5.30;99.90;;;;;;6089765;23;19928;-92
2022/01/16 23:13:03;;;;;;;;;;;;;;;;;;;;;
2022/01/16 23:15:40;;;;;;;;;;;5.30;99.90;;;;;;6104836;23;19962;-92
2022/01/16 23:24:17;;;;;;;;;;;5.80;99.90;;;;;;6117247;23;20319;-90
2022/01/16 23:26:53;;;;;;;;;;;;;;;;;;;;;
2022/01/16 23:30:10;;;;;;;;;;;;;;;;;;;;;
2022/01/16 23:32:35;;;;;;;;;;;;;;;;;;;;;
2022/01/16 23:35:04;;;;;;;;;;;4.40;99.90;;;;;;6128954;23;19916;-90
2022/01/16 23:37:30;;;;;;;;;;;5.90;99.90;;;;;;6079622;23;19917;-92
2022/01/16 23:39:58;;;;;;;;;;;6.20;99.90;;;;;;6080615;23;19951;-92
2022/01/16 23:42:37;;;;;;;;;;;;;;;;;;;;;
2022/01/16 23:45:37;;;;;;;;;;;;;;;;;;;;;
2022/01/16 23:51:33;;;;;;;;;;;5.00;99.90;;;;;;6097353;23;19917;-93
2022/01/16 23:54:17;;;;;;;;;;;4.10;99.90;;;;;;6021191;23;19922;-90
2022/01/16 23:59:58;;;;;;;;;;;5.00;99.90;;;;;;6106659;23;19916;-92
